Edna, South Dakota
Current Conditions -  °F | °C
As of 3:53 PM on Wednesday 28 Jan 2015 (Local Time) from KPIR Reporting Station
Clear Clear  
Wind Chill: 53°   Ceiling: Unl
Heat Index: 53°   Visibility: 10mi
Dew Point: 32°   Wind: 22mph
Humidity: 45%   Direction: 320°NW
Pressure: 29.8"   Gusts: 28mph
Location:  43.909°N, 100.128°W
Report Text: KPIR 282153Z AUTO 32019G24KT 10SM CLR 12/00 A2980 RMK AO2 PK WND 33029/2055 SLP101 T01170000
Loading
Personal Weather Stations






























Interactive Weather Map New forecast layout! Learn more

10-Day Weather Forecast

Advertisements
Track Severe Weather on mobile